Time;durP1;ratioP1;P1;durP2;ratioP2;P2;SDS_P1;SDS_P2;PMS_P1;PMS_P2;Temp;Humidity;BMP_temperature;BMP_pressure;BME280_temperature;BME280_humidity;BME280_pressure;Samples;Min_cycle;Max_cycle;Signal;HPM_P1;HPM_P2
2021/01/17 00:00:21;;;;;;;244.20;114.63;;;89.90;2176.00;;;;;;4962770;28;20467;-77
2021/01/17 00:02:48;;;;;;;;;;;89.80;2176.00;;;;;;4946104;28;20050;-77
2021/01/17 00:05:16;;;;;;;234.32;111.20;;;89.80;2176.00;;;;;;4959669;28;19907;-77
2021/01/17 00:07:42;;;;;;;248.57;118.80;;;89.90;2176.00;;;;;;4956904;28;20066;-78
2021/01/17 00:10:20;;;;;;;242.95;118.20;;;89.90;2176.00;;;;;;4946608;28;20057;-76
2021/01/17 00:12:50;;;;;;;314.30;130.52;;;89.90;2176.00;;;;;;4964131;28;20043;-78
2021/01/17 00:15:16;;;;;;;291.23;136.52;;;89.80;2176.00;;;;;;4948308;28;20035;-76
2021/01/17 00:17:44;;;;;;;202.23;107.28;;;90.00;2176.00;;;;;;4955204;28;20094;-76
2021/01/17 00:20:14;;;;;;;158.85;89.72;;;64.90;2201.60;;;;;;4947780;28;20357;-76
2021/01/17 00:22:41;;;;;;;148.07;76.63;;;64.80;2201.60;;;;;;4948015;28;20034;-78
2021/01/17 00:25:10;;;;;;;145.18;78.60;;;64.70;2201.60;;;;;;4953607;28;20034;-77
2021/01/17 00:27:35;;;;;;;143.15;78.97;;;64.70;2201.60;;;;;;4963690;28;20023;-77
2021/01/17 00:30:03;;;;;;;175.77;88.90;;;64.90;2201.60;;;;;;4979796;28;20037;-77
2021/01/17 00:32:29;;;;;;;141.07;73.53;;;64.80;2201.60;;;;;;4964773;28;20463;-78
2021/01/17 00:34:55;;;;;;;168.38;89.10;;;64.70;2201.60;;;;;;4965788;28;20034;-76
2021/01/17 00:37:21;;;;;;;157.75;86.55;;;64.70;2201.60;;;;;;4963701;28;20023;-77
2021/01/17 00:39:46;;;;;;;153.70;80.40;;;64.70;2201.60;;;;;;4963762;28;20469;-77
2021/01/17 00:42:14;;;;;;;165.18;84.85;;;64.60;2201.60;;;;;;4964058;28;20031;-77
2021/01/17 00:44:41;;;;;;;172.85;94.65;;;64.70;2201.60;;;;;;4964106;28;20609;-76
2021/01/17 00:47:10;;;;;;;189.93;102.40;;;64.70;2201.60;;;;;;4963989;28;20027;-78
2021/01/17 00:49:36;;;;;;;169.20;90.07;;;64.70;2201.60;;;;;;4982569;28;20031;-75
2021/01/17 00:52:02;;;;;;;174.45;94.80;;;64.80;2201.60;;;;;;4982363;28;20486;-77
2021/01/17 00:54:28;;;;;;;197.60;104.50;;;89.70;2176.00;;;;;;4964350;28;20027;-79
2021/01/17 00:56:54;;;;;;;199.05;104.78;;;89.70;2176.00;;;;;;4964175;28;20459;-77
2021/01/17 00:59:20;;;;;;;206.85;108.82;;;89.70;2176.00;;;;;;4964189;28;20034;-76
2021/01/17 01:01:47;;;;;;;200.68;99.80;;;89.90;2176.00;;;;;;4963789;28;20069;-77
2021/01/17 01:04:17;;;;;;;201.00;109.55;;;90.00;2176.00;;;;;;4964250;28;20119;-77
2021/01/17 01:06:43;;;;;;;153.10;84.25;;;90.00;2176.00;;;;;;4964475;28;20439;-77
2021/01/17 01:09:11;;;;;;;175.35;88.60;;;90.10;2176.00;;;;;;4967314;28;20033;-77
2021/01/17 01:11:38;;;;;;;197.07;104.60;;;89.90;2176.00;;;;;;4967957;28;20030;-77
2021/01/17 01:14:05;;;;;;;159.48;81.80;;;89.90;2176.00;;;;;;4968133;28;20059;-78
2021/01/17 01:16:30;;;;;;;149.98;81.07;;;90.20;2176.00;;;;;;4967485;28;20035;-76
2021/01/17 01:18:57;;;;;;;278.38;134.05;;;90.10;2176.00;;;;;;4967430;28;20035;-77
2021/01/17 01:21:33;;;;;;;259.88;133.65;;;115.20;2176.00;;;;;;4986580;28;20027;-78
2021/01/17 01:23:59;;;;;;;236.32;122.43;;;89.90;2176.00;;;;;;4974053;28;20031;-78
2021/01/17 01:26:26;;;;;;;179.65;94.32;;;89.70;2176.00;;;;;;4973729;28;20021;-77
2021/01/17 01:28:56;;;;;;;175.68;90.05;;;64.90;2201.60;;;;;;4967141;28;20371;-77
2021/01/17 01:31:25;;;;;;;146.85;74.03;;;64.80;2201.60;;;;;;4967161;28;20023;-77
2021/01/17 01:33:52;;;;;;;144.20;78.60;;;64.90;2201.60;;;;;;4967670;28;20070;-77
2021/01/17 01:36:23;;;;;;;173.73;88.20;;;89.90;2176.00;;;;;;4966330;28;20066;-77
2021/01/17 01:38:50;;;;;;;164.82;82.57;;;89.90;2176.00;;;;;;4966455;28;20054;-77
2021/01/17 01:41:17;;;;;;;234.77;103.95;;;89.90;2176.00;;;;;;4965874;28;20098;-76
2021/01/17 01:43:44;;;;;;;204.20;97.40;;;89.90;2176.00;;;;;;4966479;28;20027;-77
2021/01/17 01:46:16;;;;;;;182.55;93.70;;;89.70;2176.00;;;;;;4958361;29;20031;-79
2021/01/17 01:48:46;;;;;;;99.22;52.97;;;89.80;2176.00;;;;;;4947894;29;20035;-77
2021/01/17 01:51:17;;;;;;;118.57;57.58;;;90.10;2176.00;;;;;;4945428;29;20032;-77
2021/01/17 01:53:43;;;;;;;99.15;53.13;;;90.10;2176.00;;;;;;4946914;29;20027;-78
2021/01/17 01:56:10;;;;;;;192.88;90.38;;;90.40;2176.00;;;;;;4946350;29;20506;-78
2021/01/17 01:58:40;;;;;;;213.60;99.38;;;90.40;2176.00;;;;;;4949133;29;20170;-77
2021/01/17 02:01:06;;;;;;;137.95;67.55;;;90.20;2176.00;;;;;;4952245;29;20035;-77
2021/01/17 02:03:32;;;;;;;120.47;60.58;;;90.20;2176.00;;;;;;4948844;29;20027;-77
2021/01/17 02:06:00;;;;;;;137.85;68.18;;;90.40;2176.00;;;;;;4945170;29;20034;-77
2021/01/17 02:08:56;;;;;;;115.93;59.88;;;90.50;2176.00;;;;;;4944950;29;20027;-77
2021/01/17 02:11:35;;;;;;;84.60;44.53;;;90.40;2176.00;;;;;;4956928;28;20058;-78
2021/01/17 02:14:19;;;;;;;122.88;59.92;;;90.40;2176.00;;;;;;4963601;28;20050;-77
2021/01/17 02:16:48;;;;;;;139.38;65.35;;;90.40;2176.00;;;;;;4961713;28;20078;-77
2021/01/17 02:19:16;;;;;;;106.25;54.35;;;90.30;2176.00;;;;;;4964107;28;20034;-76
2021/01/17 02:21:50;;;;;;;110.22;57.90;;;90.40;2176.00;;;;;;4963303;28;20022;-77
2021/01/17 02:24:19;;;;;;;89.35;47.10;;;90.30;2176.00;;;;;;4965071;28;20134;-80
2021/01/17 02:26:45;;;;;;;97.68;50.65;;;90.30;2176.00;;;;;;4963892;28;20031;-77
2021/01/17 02:29:13;;;;;;;104.57;52.55;;;90.40;2176.00;;;;;;4964510;28;20031;-77
2021/01/17 02:31:42;;;;;;;129.20;64.10;;;90.30;2176.00;;;;;;4964343;28;20031;-77
2021/01/17 02:34:09;;;;;;;121.72;62.83;;;90.30;2176.00;;;;;;4965378;28;20026;-79
2021/01/17 02:37:03;;;;;;;115.00;59.30;;;90.30;2176.00;;;;;;4963855;28;20050;-78
2021/01/17 02:39:46;;;;;;;91.18;45.38;;;90.20;2176.00;;;;;;4964206;28;20046;-76
2021/01/17 02:42:12;;;;;;;83.53;42.55;;;90.20;2176.00;;;;;;4965137;28;20113;-78
2021/01/17 02:44:39;;;;;;;103.70;50.58;;;90.50;2176.00;;;;;;4964198;28;20027;-75
2021/01/17 02:47:04;;;;;;;106.75;51.17;;;90.40;2176.00;;;;;;4964690;28;20031;-77
2021/01/17 02:49:30;;;;;;;112.72;55.38;;;90.40;2176.00;;;;;;4963771;28;20033;-77
2021/01/17 02:51:57;;;;;;;103.28;51.33;;;90.30;2176.00;;;;;;4965417;28;20474;-77
2021/01/17 02:54:35;;;;;;;73.05;38.90;;;90.20;2176.00;;;;;;4964022;28;20027;-76
2021/01/17 02:57:04;;;;;;;76.72;38.55;;;90.20;2176.00;;;;;;4964686;28;20455;-75
2021/01/17 02:59:35;;;;;;;70.65;37.25;;;90.00;2176.00;;;;;;4963693;28;20031;-76
2021/01/17 03:02:06;;;;;;;66.75;34.05;;;89.80;2176.00;;;;;;4964375;28;20050;-76
2021/01/17 03:04:52;;;;;;;66.13;33.67;;;89.60;2201.60;;;;;;4964559;28;20027;-77
2021/01/17 03:07:20;;;;;;;66.07;34.90;;;89.60;2201.60;;;;;;4964203;28;20034;-77
2021/01/17 03:09:46;;;;;;;71.38;36.67;;;89.60;2201.60;;;;;;4964898;28;20027;-77
2021/01/17 03:12:12;;;;;;;64.70;33.55;;;89.80;2176.00;;;;;;4965032;28;20062;-77
2021/01/17 03:14:39;;;;;;;65.20;35.92;;;89.60;2201.60;;;;;;4964507;28;20062;-77
2021/01/17 03:17:08;;;;;;;68.65;37.20;;;89.90;2176.00;;;;;;4968092;28;20086;-78
2021/01/17 03:19:35;;;;;;;64.03;35.63;;;64.70;2201.60;;;;;;4970981;28;20026;-79
2021/01/17 03:22:01;;;;;;;64.20;34.53;;;89.60;2201.60;;;;;;4969984;28;20031;-77
2021/01/17 03:24:27;;;;;;;64.82;31.30;;;64.90;2201.60;;;;;;4969474;28;20037;-77
2021/01/17 03:26:53;;;;;;;70.70;33.97;;;89.60;2201.60;;;;;;4963228;28;20082;-76
2021/01/17 03:29:20;;;;;;;72.60;38.85;;;89.80;2176.00;;;;;;4963968;28;20445;-78
2021/01/17 03:31:46;;;;;;;93.20;47.88;;;89.70;2176.00;;;;;;4948258;28;20062;-77
2021/01/17 03:34:12;;;;;;;91.65;46.53;;;89.60;2201.60;;;;;;4945182;29;20035;-77
2021/01/17 03:36:37;;;;;;;88.32;48.60;;;64.80;2201.60;;;;;;4944479;29;20032;-77
2021/01/17 03:39:04;;;;;;;67.13;38.03;;;64.80;2201.60;;;;;;4945445;29;20069;-76
2021/01/17 03:41:30;;;;;;;52.90;28.23;;;64.10;2201.60;;;;;;4945028;29;20024;-77
2021/01/17 03:43:56;;;;;;;53.83;28.42;;;64.80;2201.60;;;;;;4944761;29;20058;-77
2021/01/17 03:46:22;;;;;;;63.00;31.23;;;89.60;2201.60;;;;;;4944750;29;20066;-77
2021/01/17 03:48:49;;;;;;;76.43;40.72;;;89.60;2201.60;;;;;;4945047;29;20039;-77
2021/01/17 03:51:15;;;;;;;77.65;39.80;;;89.80;2176.00;;;;;;4944976;29;20066;-77
2021/01/17 03:53:41;;;;;;;77.65;39.35;;;89.90;2176.00;;;;;;4945183;29;20027;-78
2021/01/17 03:56:06;;;;;;;79.82;40.17;;;89.90;2176.00;;;;;;4944430;29;20035;-77
2021/01/17 03:58:32;;;;;;;65.00;36.42;;;89.90;2176.00;;;;;;4944551;29;20110;-78
2021/01/17 04:00:59;;;;;;;70.82;37.45;;;89.90;2176.00;;;;;;4944925;29;20448;-78
2021/01/17 04:03:24;;;;;;;66.25;36.58;;;90.00;2176.00;;;;;;4944291;29;20042;-76
2021/01/17 04:05:50;;;;;;;59.42;31.77;;;90.10;2176.00;;;;;;4944807;29;20035;-77
2021/01/17 04:08:16;;;;;;;60.13;34.58;;;90.20;2176.00;;;;;;4944439;29;20502;-77
2021/01/17 04:10:42;;;;;;;60.70;35.63;;;90.20;2176.00;;;;;;4962312;29;20102;-77
2021/01/17 04:13:08;;;;;;;63.90;32.88;;;90.10;2176.00;;;;;;4944984;29;20464;-77
2021/01/17 04:15:33;;;;;;;71.25;36.47;;;90.00;2176.00;;;;;;4944361;29;20364;-77
2021/01/17 04:17:59;;;;;;;60.45;33.63;;;89.90;2176.00;;;;;;4945081;29;20089;-77
2021/01/17 04:20:25;;;;;;;66.30;33.42;;;90.00;2176.00;;;;;;4945052;29;20023;-77
2021/01/17 04:22:51;;;;;;;60.80;34.55;;;90.00;2176.00;;;;;;4945394;29;20027;-77
2021/01/17 04:25:16;;;;;;;70.13;36.75;;;90.00;2176.00;;;;;;4944671;29;20356;-77
2021/01/17 04:27:42;;;;;;;66.75;33.95;;;90.00;2176.00;;;;;;4945420;29;20110;-77
2021/01/17 04:30:09;;;;;;;61.28;33.13;;;90.00;2176.00;;;;;;4944511;29;20027;-77
2021/01/17 04:32:39;;;;;;;59.38;29.77;;;90.20;2176.00;;;;;;4944506;29;20122;-78
2021/01/17 04:35:06;;;;;;;64.40;30.80;;;90.10;2176.00;;;;;;4945016;29;20035;-77
2021/01/17 04:37:31;;;;;;;59.17;33.40;;;90.00;2176.00;;;;;;4945553;29;20490;-77
2021/01/17 04:39:57;;;;;;;56.15;31.58;;;90.00;2176.00;;;;;;4945383;29;20027;-79
2021/01/17 04:42:24;;;;;;;64.22;33.50;;;90.00;2176.00;;;;;;4945149;29;20023;-78
2021/01/17 04:44:52;;;;;;;60.10;33.28;;;90.00;2176.00;;;;;;4948755;29;20027;-78
2021/01/17 04:47:21;;;;;;;63.58;34.03;;;90.00;2176.00;;;;;;4949429;29;20027;-76
2021/01/17 04:49:53;;;;;;;69.70;35.92;;;90.00;2176.00;;;;;;4949373;29;20035;-77
2021/01/17 04:52:21;;;;;;;65.63;33.95;;;90.00;2176.00;;;;;;4949458;29;20459;-76
2021/01/17 04:54:53;;;;;;;62.38;35.13;;;90.20;2176.00;;;;;;4949231;29;20042;-78
2021/01/17 04:57:44;;;;;;;64.35;33.08;;;90.20;2176.00;;;;;;4949273;29;20030;-77
2021/01/17 05:00:10;;;;;;;56.92;32.92;;;90.20;2176.00;;;;;;4950012;29;20035;-77
2021/01/17 05:03:12;;;;;;;60.42;31.98;;;90.30;2176.00;;;;;;4955031;29;20034;-78
2021/01/17 05:05:53;;;;;;;64.88;32.88;;;90.30;2176.00;;;;;;4954987;29;20031;-76
2021/01/17 05:08:45;;;;;;;65.82;36.78;;;90.30;2176.00;;;;;;4947616;29;20073;-77
2021/01/17 05:11:32;;;;;;;65.13;34.80;;;90.30;2176.00;;;;;;4962260;28;20100;-78
2021/01/17 05:14:10;;;;;;;70.38;36.92;;;64.90;2201.60;;;;;;4970025;28;20054;-78
2021/01/17 05:16:44;;;;;;;71.13;35.83;;;90.00;2176.00;;;;;;4978368;28;20035;-77
2021/01/17 05:19:15;;;;;;;65.90;36.63;;;89.90;2176.00;;;;;;4965918;28;20027;-77
2021/01/17 05:21:48;;;;;;;75.43;38.58;;;89.80;2176.00;;;;;;4962876;28;20062;-77
2021/01/17 05:24:16;;;;;;;73.88;40.25;;;89.70;2176.00;;;;;;4964874;28;20026;-79
2021/01/17 05:26:53;;;;;;;64.28;35.97;;;89.60;2201.60;;;;;;4964586;28;20031;-77
2021/01/17 05:29:21;;;;;;;63.47;36.40;;;64.90;2201.60;;;;;;4965416;28;20030;-77
2021/01/17 05:31:55;;;;;;;78.03;39.88;;;64.90;2201.60;;;;;;4964720;28;20151;-78
2021/01/17 05:34:21;;;;;;;78.93;41.38;;;64.80;2201.60;;;;;;4965040;28;20478;-77
2021/01/17 05:36:47;;;;;;;72.32;39.08;;;64.90;2201.60;;;;;;4965192;28;20043;-76
2021/01/17 05:39:13;;;;;;;103.88;52.00;;;64.90;2201.60;;;;;;4965639;28;20398;-77
2021/01/17 05:41:40;;;;;;;130.73;60.97;;;89.60;2201.60;;;;;;4949179;29;20058;-77
2021/01/17 05:44:06;;;;;;;124.50;62.80;;;89.70;2176.00;;;;;;4946517;29;20027;-76
2021/01/17 05:46:32;;;;;;;114.13;55.05;;;89.90;2176.00;;;;;;4945221;29;20369;-78
2021/01/17 05:49:11;;;;;;;118.70;59.13;;;89.90;2176.00;;;;;;4945478;29;20034;-77
2021/01/17 05:51:37;;;;;;;104.10;54.63;;;89.80;2176.00;;;;;;4945198;29;20039;-77
2021/01/17 05:54:08;;;;;;;105.10;52.65;;;89.70;2176.00;;;;;;4945049;29;20484;-76
2021/01/17 05:56:35;;;;;;;119.57;64.18;;;89.80;2176.00;;;;;;4944925;29;20038;-77
2021/01/17 05:59:02;;;;;;;125.97;65.50;;;89.80;2176.00;;;;;;4944772;29;20059;-77
2021/01/17 06:01:32;;;;;;;117.80;66.38;;;89.90;2176.00;;;;;;4944112;29;20035;-77
2021/01/17 06:04:07;;;;;;;126.18;72.68;;;90.30;2176.00;;;;;;4944325;29;20167;-77
2021/01/17 06:06:34;;;;;;;126.30;66.60;;;89.90;2176.00;;;;;;4945857;29;20031;-77
2021/01/17 06:09:01;;;;;;;167.25;84.45;;;89.90;2176.00;;;;;;4945312;29;20027;-78
2021/01/17 06:11:28;;;;;;;161.35;81.43;;;89.90;2176.00;;;;;;4945658;29;20064;-76
2021/01/17 06:13:58;;;;;;;166.07;85.68;;;90.00;2176.00;;;;;;4945442;29;20110;-78
2021/01/17 06:16:25;;;;;;;215.80;106.95;;;90.10;2176.00;;;;;;4945103;29;20036;-77
2021/01/17 06:18:56;;;;;;;228.05;108.50;;;90.10;2176.00;;;;;;4945116;29;20103;-77
2021/01/17 06:21:24;;;;;;;168.10;84.63;;;90.10;2176.00;;;;;;4945494;29;20031;-78
2021/01/17 06:23:55;;;;;;;144.10;75.93;;;90.00;2176.00;;;;;;4945496;29;20081;-77
2021/01/17 06:26:26;;;;;;;141.45;77.75;;;90.00;2176.00;;;;;;4945246;29;20031;-78
2021/01/17 06:28:52;;;;;;;163.27;93.68;;;90.20;2176.00;;;;;;4944991;29;20027;-78
2021/01/17 06:31:22;;;;;;;142.68;74.25;;;90.30;2176.00;;;;;;4945590;29;20039;-78
2021/01/17 06:33:51;;;;;;;116.97;64.22;;;90.20;2176.00;;;;;;4945812;29;20074;-76
2021/01/17 06:36:17;;;;;;;187.38;99.90;;;90.10;2176.00;;;;;;4945406;29;20058;-77
2021/01/17 06:38:44;;;;;;;157.63;83.88;;;90.20;2176.00;;;;;;4945136;29;20032;-77
2021/01/17 06:41:11;;;;;;;124.50;66.35;;;90.20;2176.00;;;;;;4945612;29;20386;-77
2021/01/17 06:43:42;;;;;;;131.15;68.30;;;90.00;2176.00;;;;;;4946210;29;20031;-77
2021/01/17 06:46:10;;;;;;;154.30;75.32;;;89.90;2176.00;;;;;;4946680;29;20027;-77
2021/01/17 06:48:36;;;;;;;484.80;279.02;;;90.00;2176.00;;;;;;4946593;29;20082;-77
2021/01/17 06:51:16;;;;;;;332.05;179.65;;;90.10;2176.00;;;;;;4945211;29;20495;-77
2021/01/17 06:53:51;;;;;;;279.65;149.90;;;90.30;2176.00;;;;;;4945309;29;20031;-78
2021/01/17 06:56:19;;;;;;;218.32;114.03;;;115.70;2176.00;;;;;;4948237;29;20039;-78
2021/01/17 06:58:46;;;;;;;216.07;113.00;;;90.10;2176.00;;;;;;4944854;29;20038;-77
2021/01/17 07:01:14;;;;;;;230.27;126.90;;;90.00;2176.00;;;;;;4954362;28;20474;-77
2021/01/17 07:04:11;;;;;;;233.50;125.35;;;89.70;2176.00;;;;;;4965174;28;20027;-77
2021/01/17 07:07:16;;;;;;;195.80;107.13;;;89.80;2176.00;;;;;;4978660;28;20121;-77
2021/01/17 07:10:02;;;;;;;153.43;78.38;;;89.70;2176.00;;;;;;4965481;28;20046;-78
2021/01/17 07:12:56;;;;;;;187.88;100.10;;;89.60;2201.60;;;;;;4964441;28;20050;-77
2021/01/17 07:15:27;;;;;;;195.73;95.10;;;64.90;2201.60;;;;;;4963569;28;20034;-77
2021/01/17 07:18:07;;;;;;;224.32;105.75;;;64.90;2201.60;;;;;;4963835;28;20047;-76
2021/01/17 07:20:56;;;;;;;158.82;82.60;;;64.80;2201.60;;;;;;4964649;28;20034;-76
2021/01/17 07:23:24;;;;;;;141.55;74.00;;;64.90;2201.60;;;;;;4964208;28;20040;-76
2021/01/17 07:25:50;;;;;;;134.25;68.93;;;64.80;2201.60;;;;;;4964479;28;20035;-76
2021/01/17 07:28:20;;;;;;;128.38;68.90;;;64.70;2201.60;;;;;;4965159;28;20037;-77
2021/01/17 07:30:50;;;;;;;160.77;87.78;;;64.90;2201.60;;;;;;4965449;28;20473;-77
2021/01/17 07:33:30;;;;;;;173.48;93.45;;;64.60;2201.60;;;;;;4965210;28;20360;-75
2021/01/17 07:35:59;;;;;;;180.90;99.88;;;64.80;2201.60;;;;;;4959565;28;20069;-77
2021/01/17 07:38:30;;;;;;;180.93;101.63;;;89.60;2201.60;;;;;;4965046;28;20027;-76
2021/01/17 07:41:07;;;;;;;186.32;111.53;;;64.80;2201.60;;;;;;4965163;28;20467;-77
2021/01/17 07:43:39;;;;;;;178.35;104.90;;;64.90;2201.60;;;;;;4964481;28;20093;-78
2021/01/17 07:46:09;;;;;;;178.10;99.28;;;89.60;2201.60;;;;;;4963996;28;20042;-76
2021/01/17 07:48:36;;;;;;;174.88;111.70;;;64.30;2201.60;;;;;;4964541;28;20026;-76
2021/01/17 07:51:04;;;;;;;204.02;121.13;;;89.60;2201.60;;;;;;4964854;28;20398;-78
2021/01/17 07:53:36;;;;;;;254.73;139.30;;;64.90;2201.60;;;;;;4965465;28;20049;-77
2021/01/17 07:56:16;;;;;;;223.10;126.22;;;64.70;2201.60;;;;;;4965554;28;20038;-76
2021/01/17 07:58:47;;;;;;;220.45;126.32;;;64.70;2201.60;;;;;;4965953;28;20034;-76
2021/01/17 08:01:31;;;;;;;217.00;129.63;;;64.60;2201.60;;;;;;4964783;28;20039;-76
2021/01/17 08:04:05;;;;;;;175.57;101.78;;;64.50;2201.60;;;;;;4965961;28;20367;-75
2021/01/17 08:06:34;;;;;;;168.30;98.30;;;64.40;2201.60;;;;;;4966205;28;20041;-76
2021/01/17 08:09:14;;;;;;;159.40;98.20;;;64.60;2201.60;;;;;;4965924;28;20106;-78
2021/01/17 08:11:47;;;;;;;145.18;87.40;;;64.70;2201.60;;;;;;4964497;28;20077;-75
2021/01/17 08:14:33;;;;;;;149.57;97.20;;;64.70;2201.60;;;;;;4965783;28;20207;-77
2021/01/17 08:17:17;;;;;;;137.40;91.50;;;64.60;2201.60;;;;;;4962112;28;20121;-76
2021/01/17 08:19:57;;;;;;;133.25;82.93;;;64.40;2201.60;;;;;;4951764;29;20027;-76
2021/01/17 08:22:23;;;;;;;244.20;138.70;;;64.30;2201.60;;;;;;4947696;29;20023;-77
2021/01/17 08:24:55;;;;;;;166.00;97.90;;;64.20;2201.60;;;;;;4948841;29;20038;-76
2021/01/17 08:27:28;;;;;;;227.50;123.25;;;64.30;2201.60;;;;;;4948936;29;20031;-77
2021/01/17 08:30:10;;;;;;;330.00;177.68;;;64.20;2201.60;;;;;;4947653;28;20027;-77
2021/01/17 08:32:37;;;;;;;132.25;81.07;;;64.30;2201.60;;;;;;4962526;29;20032;-76
2021/01/17 08:35:18;;;;;;;137.73;79.57;;;64.40;2201.60;;;;;;4946230;29;20039;-76
2021/01/17 08:37:52;;;;;;;156.70;91.45;;;64.20;2201.60;;;;;;4948295;29;20034;-77
2021/01/17 08:40:27;;;;;;;130.50;80.25;;;64.20;2201.60;;;;;;4951071;29;20049;-76
2021/01/17 08:43:04;;;;;;;176.45;102.47;;;64.10;2201.60;;;;;;4949995;29;20348;-78
2021/01/17 08:45:33;;;;;;;118.03;66.68;;;39.30;2201.60;;;;;;4947834;29;20034;-77
2021/01/17 08:48:02;;;;;;;173.85;102.82;;;64.10;2201.60;;;;;;4946249;29;20054;-76
2021/01/17 08:50:37;;;;;;;139.32;84.55;;;64.20;2201.60;;;;;;4946183;29;20491;-77
2021/01/17 08:53:24;;;;;;;138.25;84.65;;;64.10;2201.60;;;;;;4946520;29;20059;-78
2021/01/17 08:55:53;;;;;;;134.35;77.30;;;39.30;2201.60;;;;;;4945711;29;20130;-79
2021/01/17 08:58:27;;;;;;;125.07;75.80;;;39.20;2201.60;;;;;;4943085;29;20035;-77
2021/01/17 09:00:56;;;;;;;123.20;73.38;;;39.00;2201.60;;;;;;4943710;29;20062;-77
2021/01/17 09:03:28;;;;;;;124.40;73.40;;;38.90;2201.60;;;;;;4942934;29;20035;-76
2021/01/17 09:05:57;;;;;;;139.82;86.50;;;38.80;2201.60;;;;;;4944009;29;20046;-76
2021/01/17 09:08:23;;;;;;;137.18;80.60;;;38.70;2201.60;;;;;;4942473;29;20054;-77
2021/01/17 09:10:49;;;;;;;117.43;68.65;;;38.70;2201.60;;;;;;4952419;28;20035;-77
2021/01/17 09:13:22;;;;;;;126.85;74.72;;;38.70;2201.60;;;;;;4962349;28;20051;-77
2021/01/17 09:16:07;;;;;;;177.55;96.90;;;38.60;2201.60;;;;;;4955445;29;20049;-77
2021/01/17 09:18:37;;;;;;;174.73;110.22;;;38.50;2201.60;;;;;;4943880;29;20027;-79
2021/01/17 09:21:08;;;;;;;145.45;90.03;;;38.70;2201.60;;;;;;4944872;29;20027;-77
2021/01/17 09:23:38;;;;;;;173.00;104.88;;;38.80;2201.60;;;;;;4946125;29;20027;-77
2021/01/17 09:26:05;;;;;;;199.30;125.57;;;38.90;2201.60;;;;;;4944837;29;20031;-77
2021/01/17 09:28:31;;;;;;;193.60;119.18;;;38.90;2201.60;;;;;;4943843;29;20127;-77
2021/01/17 09:31:00;;;;;;;177.77;108.75;;;38.80;2201.60;;;;;;4946975;29;20106;-77
2021/01/17 09:33:28;;;;;;;180.93;109.60;;;38.70;2201.60;;;;;;4945464;29;20031;-77
2021/01/17 09:35:54;;;;;;;182.52;106.97;;;38.90;2201.60;;;;;;4946519;29;20035;-77
2021/01/17 09:38:22;;;;;;;212.23;126.65;;;38.90;2201.60;;;;;;4948597;29;20028;-77
2021/01/17 09:40:50;;;;;;;218.15;147.35;;;38.80;2201.60;;;;;;4948771;29;20071;-77
2021/01/17 09:43:16;;;;;;;266.27;190.57;;;38.60;2201.60;;;;;;4948247;29;20034;-77
2021/01/17 09:45:49;;;;;;;269.10;201.73;;;38.50;2201.60;;;;;;4945269;29;20460;-77
2021/01/17 09:48:21;;;;;;;236.80;139.18;;;38.40;2201.60;;;;;;4945935;29;20031;-77
2021/01/17 09:50:50;;;;;;;165.52;98.45;;;38.40;2201.60;;;;;;4944938;29;20031;-76
2021/01/17 09:53:16;;;;;;;174.60;105.20;;;13.70;2201.60;;;;;;4944421;29;20030;-77
2021/01/17 09:55:44;;;;;;;172.38;108.68;;;13.70;2201.60;;;;;;4944478;29;20043;-77
2021/01/17 09:58:12;;;;;;;175.02;110.63;;;13.70;2201.60;;;;;;4943882;29;20031;-76
2021/01/17 10:00:40;;;;;;;192.93;121.03;;;13.50;2201.60;;;;;;4943513;29;20387;-76
2021/01/17 10:03:15;;;;;;;192.90;113.35;;;13.50;2201.60;;;;;;4944944;29;20455;-76
2021/01/17 10:05:44;;;;;;;159.50;93.95;;;13.50;2201.60;;;;;;4947820;29;20058;-77
2021/01/17 10:08:12;;;;;;;145.13;87.53;;;13.40;2201.60;;;;;;4953925;28;20054;-76
2021/01/17 10:10:39;;;;;;;208.65;111.97;;;13.50;2201.60;;;;;;4965781;28;20093;-76
2021/01/17 10:13:07;;;;;;;193.77;107.72;;;13.40;2201.60;;;;;;4964231;28;20043;-76
2021/01/17 10:15:33;;;;;;;175.07;106.07;;;13.40;2201.60;;;;;;4965054;28;20113;-77
2021/01/17 10:18:00;;;;;;;269.40;137.20;;;13.60;2201.60;;;;;;4967085;28;20027;-77
2021/01/17 10:20:34;;;;;;;184.05;104.63;;;13.40;2201.60;;;;;;4966401;28;20085;-77
2021/01/17 10:23:07;;;;;;;152.23;92.00;;;13.30;2201.60;;;;;;4965842;28;20031;-78
2021/01/17 10:25:34;;;;;;;174.98;101.90;;;13.30;2201.60;;;;;;4964635;28;20055;-77
2021/01/17 10:28:01;;;;;;;133.88;78.88;;;13.30;2201.60;;;;;;4964876;28;20027;-77
2021/01/17 10:30:32;;;;;;;140.27;87.43;;;13.30;2201.60;;;;;;4964847;28;20121;-78
2021/01/17 10:33:03;;;;;;;175.65;105.97;;;13.30;2201.60;;;;;;4965376;28;20031;-79
2021/01/17 10:35:45;;;;;;;140.52;85.75;;;13.20;2201.60;;;;;;4982740;28;20046;-77
2021/01/17 10:38:13;;;;;;;242.48;140.45;;;13.50;2201.60;;;;;;4980668;28;20026;-78
2021/01/17 10:40:40;;;;;;;158.13;95.28;;;13.60;2201.60;;;;;;4966252;28;20030;-77
2021/01/17 10:43:09;;;;;;;127.03;73.13;;;13.50;2201.60;;;;;;4948814;28;20066;-76
2021/01/17 10:45:38;;;;;;;123.38;76.75;;;13.40;2201.60;;;;;;4965260;28;20027;-78
2021/01/17 10:48:14;;;;;;;105.03;63.88;;;13.20;2201.60;;;;;;4962472;28;20113;-77
2021/01/17 10:51:00;;;;;;;86.93;54.10;;;13.10;2201.60;;;;;;4963264;28;20033;-76
2021/01/17 10:53:38;;;;;;;83.05;50.78;;;13.00;2201.60;;;;;;4962140;28;20485;-79
2021/01/17 10:56:05;;;;;;;91.18;56.45;;;13.00;2201.60;;;;;;4960842;28;20049;-78
2021/01/17 10:58:40;;;;;;;94.50;53.60;;;13.00;2201.60;;;;;;4957421;28;20028;-76
2021/01/17 11:01:06;;;;;;;94.90;57.53;;;0.00;2201.60;;;;;;4978615;28;20055;-77
2021/01/17 11:03:32;;;;;;;97.07;60.17;;;12.90;2201.60;;;;;;4962405;28;20583;-78
2021/01/17 11:06:11;;;;;;;85.78;48.00;;;0.00;2201.60;;;;;;4960580;28;20497;-76
2021/01/17 11:08:44;;;;;;;65.57;41.10;;;0.10;2201.60;;;;;;4978666;28;20031;-75
2021/01/17 11:11:12;;;;;;;60.17;39.63;;;0.00;2201.60;;;;;;4962061;28;20022;-79
2021/01/17 11:13:38;;;;;;;94.90;58.97;;;13.00;2201.60;;;;;;4961892;28;20050;-79
2021/01/17 11:16:04;;;;;;;71.20;43.00;;;13.10;2201.60;;;;;;4963085;28;20537;-76
2021/01/17 11:18:31;;;;;;;76.30;46.95;;;13.00;2201.60;;;;;;4963366;28;20467;-75
2021/01/17 11:21:01;;;;;;;67.10;45.15;;;0.00;2201.60;;;;;;4950929;29;20090;-78
2021/01/17 11:23:28;;;;;;;64.43;38.05;;;0.10;2201.60;;;;;;4953054;29;20035;-77
2021/01/17 11:26:06;;;;;;;55.42;37.05;;;0.00;2201.60;;;;;;4949135;29;20033;-78
2021/01/17 11:28:33;;;;;;;69.65;43.47;;;0.10;2201.60;;;;;;4948056;28;20046;-77
2021/01/17 11:31:13;;;;;;;96.72;56.05;;;0.30;2201.60;;;;;;4939396;28;20051;-77
2021/01/17 11:33:39;;;;;;;123.35;72.65;;;0.40;2201.60;;;;;;4938668;28;20031;-78
2021/01/17 11:36:06;;;;;;;66.38;40.42;;;0.40;2176.00;;;;;;4940652;28;20086;-77
2021/01/17 11:38:50;;;;;;;95.70;50.45;;;13.00;2176.00;;;;;;4922785;29;20055;-76
2021/01/17 11:41:20;;;;;;;194.60;82.97;;;0.00;2176.00;;;;;;4938646;28;20573;-78
2021/01/17 11:43:47;;;;;;;326.33;131.52;;;0.00;2201.60;;;;;;4940730;28;20486;-77
2021/01/17 11:46:14;;;;;;;143.40;82.70;;;0.30;2201.60;;;;;;4956234;28;20035;-76
2021/01/17 11:48:41;;;;;;;106.28;60.45;;;0.30;2201.60;;;;;;4955026;28;20126;-75
2021/01/17 11:51:08;;;;;;;193.15;78.63;;;0.30;2176.00;;;;;;4956704;28;20434;-77
2021/01/17 11:53:35;;;;;;;220.70;83.15;;;0.00;2176.00;;;;;;4957753;28;20026;-80
2021/01/17 11:56:01;;;;;;;172.02;75.05;;;13.20;2176.00;;;;;;4957394;28;20035;-77
2021/01/17 11:58:28;;;;;;;87.30;49.70;;;13.00;2201.60;;;;;;4958738;28;20505;-77
2021/01/17 12:00:59;;;;;;;101.43;62.08;;;13.00;2201.60;;;;;;4959049;28;20037;-77
2021/01/17 12:03:30;;;;;;;86.55;52.40;;;12.90;2201.60;;;;;;4976702;28;20082;-81
2021/01/17 12:06:07;;;;;;;74.00;45.85;;;0.10;2201.60;;;;;;4958802;28;20065;-76
2021/01/17 12:08:48;;;;;;;72.85;45.13;;;0.00;2201.60;;;;;;4957411;28;20020;-77
2021/01/17 12:11:32;;;;;;;152.98;87.18;;;0.10;2201.60;;;;;;4953983;28;20031;-78
2021/01/17 12:14:06;;;;;;;178.15;126.80;;;0.10;2201.60;;;;;;4950780;28;20514;-77
2021/01/17 12:16:36;;;;;;;132.05;83.63;;;0.20;2201.60;;;;;;4940945;28;20093;-80